createdAt,value
2022-09-06T00:01:19.619Z,58.37
2022-09-06T00:03:47.530Z,58.42
2022-09-06T00:06:16.313Z,58.45
2022-09-06T00:08:45.193Z,58.76
2022-09-06T00:11:13.592Z,58.68
2022-09-06T00:13:41.417Z,58.78
2022-09-06T00:16:11.199Z,58.83
2022-09-06T00:18:39.716Z,58.91
2022-09-06T00:21:16.614Z,58.80
2022-09-06T00:23:44.427Z,58.76
2022-09-06T00:26:12.836Z,58.77
2022-09-06T00:28:40.712Z,58.80
2022-09-06T00:31:09.901Z,58.75
2022-09-06T00:33:37.627Z,58.70
2022-09-06T00:36:06.042Z,58.68
2022-09-06T00:38:34.099Z,58.56
2022-09-06T00:41:02.233Z,58.47
2022-09-06T00:43:30.347Z,58.48
2022-09-06T00:45:58.507Z,58.49
2022-09-06T00:48:26.776Z,58.58
2022-09-06T00:50:57.695Z,58.68
2022-09-06T00:53:26.045Z,58.73
2022-09-06T00:55:54.255Z,58.72
2022-09-06T00:58:22.445Z,58.70
2022-09-06T01:00:50.490Z,58.67
2022-09-06T01:03:19.600Z,58.73
2022-09-06T01:06:05.682Z,58.68
2022-09-06T01:08:52.600Z,58.85
2022-09-06T01:11:37.340Z,58.78
2022-09-06T01:14:24.229Z,58.85
2022-09-06T01:17:19.264Z,58.76
2022-09-06T01:19:56.580Z,58.66
2022-09-06T01:22:43.264Z,58.63
2022-09-06T01:25:23.347Z,58.48
2022-09-06T01:28:00.769Z,58.51
2022-09-06T01:30:29.938Z,58.48
2022-09-06T01:33:03.739Z,58.39
2022-09-06T01:35:44.807Z,58.42
2022-09-06T01:38:12.960Z,58.43
2022-09-06T01:40:40.699Z,58.38
2022-09-06T01:43:11.283Z,58.36
2022-09-06T01:45:45.542Z,58.29
2022-09-06T01:48:31.936Z,58.36
2022-09-06T01:51:06.337Z,58.47
2022-09-06T01:53:55.373Z,58.46
2022-09-06T01:56:26.118Z,58.48
2022-09-06T01:58:57.212Z,58.45
2022-09-06T02:01:31.918Z,58.24
2022-09-06T02:04:02.285Z,58.18
2022-09-06T02:06:33.204Z,58.20
2022-09-06T02:09:04.584Z,58.28
2022-09-06T02:11:37.197Z,58.32
2022-09-06T02:14:09.349Z,58.49
2022-09-06T02:16:40.992Z,58.36
2022-09-06T02:19:12.576Z,58.34
2022-09-06T02:21:43.508Z,58.42
2022-09-06T02:24:15.307Z,58.57
2022-09-06T02:26:43.873Z,58.71
2022-09-06T02:29:12.019Z,58.61
2022-09-06T02:31:44.441Z,58.57
2022-09-06T02:34:14.968Z,58.46
2022-09-06T02:36:43.197Z,58.27
2022-09-06T02:39:11.749Z,58.17
2022-09-06T02:41:41.349Z,58.14
2022-09-06T02:44:09.661Z,58.21
2022-09-06T02:46:37.636Z,58.23
2022-09-06T02:49:05.526Z,58.46
2022-09-06T02:51:38.241Z,58.35
2022-09-06T02:54:06.665Z,58.10
2022-09-06T02:56:37.165Z,58.04
2022-09-06T02:59:06.003Z,57.95
2022-09-06T03:01:34.263Z,58.04
2022-09-06T03:04:02.571Z,58.22
2022-09-06T03:06:30.860Z,58.60
2022-09-06T03:09:00.424Z,59.38
2022-09-06T03:11:28.816Z,60.01
2022-09-06T03:13:56.864Z,61.18
2022-09-06T03:16:25.271Z,61.36
2022-09-06T03:18:53.286Z,61.58
2022-09-06T03:21:21.122Z,62.16
2022-09-06T03:23:50.072Z,62.59
2022-09-06T03:26:17.880Z,62.85
2022-09-06T03:28:48.427Z,62.55
2022-09-06T03:31:16.272Z,62.56
2022-09-06T03:33:44.027Z,62.43
2022-09-06T03:36:12.156Z,62.44
2022-09-06T03:38:40.349Z,62.59
2022-09-06T03:41:08.276Z,62.84
2022-09-06T03:43:36.170Z,62.90
2022-09-06T03:46:04.310Z,63.12
2022-09-06T03:48:32.370Z,63.42
2022-09-06T03:51:00.240Z,63.72
2022-09-06T03:53:29.273Z,63.93
2022-09-06T03:55:58.216Z,64.17
2022-09-06T03:58:30.031Z,64.07
2022-09-06T04:01:02.333Z,64.31
2022-09-06T04:03:31.811Z,64.29
2022-09-06T04:05:59.618Z,64.23
2022-09-06T04:08:28.023Z,64.78
2022-09-06T04:10:57.143Z,64.54
2022-09-06T04:13:27.565Z,64.41
2022-09-06T04:15:56.088Z,64.43
2022-09-06T04:18:24.688Z,64.23
2022-09-06T04:20:54.142Z,64.21
2022-09-06T04:23:23.004Z,64.39
2022-09-06T04:25:52.293Z,64.18
2022-09-06T04:28:20.953Z,64.06
2022-09-06T04:30:56.009Z,63.98
2022-09-06T04:33:26.281Z,63.99
2022-09-06T04:35:55.073Z,64.06
2022-09-06T04:38:27.364Z,64.25
2022-09-06T04:40:58.992Z,64.34
2022-09-06T04:43:27.186Z,64.29
2022-09-06T04:45:54.899Z,64.54
2022-09-06T04:48:23.149Z,64.50
2022-09-06T04:50:51.540Z,64.34
2022-09-06T04:53:19.431Z,64.33
2022-09-06T04:55:47.157Z,64.18
2022-09-06T04:58:15.396Z,63.93
2022-09-06T05:00:45.119Z,63.83
2022-09-06T05:03:12.934Z,63.90
2022-09-06T05:05:40.752Z,63.91
2022-09-06T05:08:09.068Z,63.74
2022-09-06T05:10:36.816Z,63.72
2022-09-06T05:13:04.659Z,63.77
2022-09-06T05:15:33.898Z,63.64
2022-09-06T05:18:03.944Z,63.69
2022-09-06T05:20:32.198Z,63.40
2022-09-06T05:23:00.027Z,63.30
2022-09-06T05:25:28.206Z,63.14
2022-09-06T05:27:55.879Z,62.96
2022-09-06T05:30:24.097Z,62.91
2022-09-06T05:32:52.184Z,62.71
2022-09-06T05:35:19.961Z,62.74
2022-09-06T05:37:48.083Z,62.64
2022-09-06T05:40:16.203Z,62.75
2022-09-06T05:42:44.377Z,62.49
2022-09-06T05:45:12.124Z,62.31
2022-09-06T05:47:40.160Z,61.86
2022-09-06T05:50:08.161Z,61.69
2022-09-06T05:52:36.406Z,61.54
2022-09-06T05:55:04.499Z,61.45
2022-09-06T05:57:32.508Z,61.10
2022-09-06T06:00:00.693Z,60.82
2022-09-06T06:02:28.975Z,60.51
2022-09-06T06:04:58.565Z,60.41
2022-09-06T06:07:26.680Z,60.01
2022-09-06T06:09:54.620Z,59.82
2022-09-06T06:12:22.650Z,59.66
2022-09-06T06:14:50.483Z,59.47
2022-09-06T06:17:18.436Z,59.56
2022-09-06T06:19:46.249Z,58.88
2022-09-06T06:22:14.138Z,58.91
2022-09-06T06:24:42.177Z,58.94
2022-09-06T06:27:10.025Z,58.85
2022-09-06T06:29:37.949Z,58.36
2022-09-06T06:32:06.303Z,57.91
2022-09-06T06:34:35.969Z,57.72
2022-09-06T06:37:03.862Z,57.54
2022-09-06T06:39:31.933Z,57.51
2022-09-06T06:41:59.976Z,57.21
2022-09-06T06:44:37.872Z,57.01
2022-09-06T06:47:07.381Z,56.95
2022-09-06T06:49:35.617Z,56.79
2022-09-06T06:52:03.908Z,56.29
2022-09-06T06:54:31.774Z,56.05
2022-09-06T06:57:00.002Z,55.64
2022-09-06T06:59:28.233Z,55.44
2022-09-06T07:01:56.605Z,55.07
2022-09-06T07:04:24.628Z,54.69
2022-09-06T07:12:30.419Z,54.73
2022-09-06T07:14:58.249Z,55.05
2022-09-06T07:17:26.293Z,55.15
2022-09-06T07:22:38.479Z,55.33
2022-09-06T07:25:06.546Z,55.29
2022-09-06T07:27:50.434Z,55.30
2022-09-06T07:30:20.526Z,55.15
2022-09-06T07:32:48.973Z,55.24
2022-09-06T07:35:16.819Z,55.27
2022-09-06T07:37:51.541Z,55.22
2022-09-06T07:40:19.702Z,55.38
2022-09-06T07:42:47.958Z,55.17
2022-09-06T07:45:16.447Z,55.04
2022-09-06T07:48:00.885Z,55.10
2022-09-06T07:53:23.321Z,55.16
2022-09-06T07:56:02.058Z,54.57
2022-09-06T07:58:31.254Z,53.96
2022-09-06T08:01:18.134Z,53.36
2022-09-06T08:03:46.970Z,52.92
2022-09-06T08:06:15.218Z,52.74
2022-09-06T08:08:58.960Z,52.61
2022-09-06T08:11:28.475Z,52.60
2022-09-06T08:13:57.136Z,52.59
2022-09-06T08:16:26.145Z,51.73
2022-09-06T08:18:55.549Z,50.87
2022-09-06T08:21:24.837Z,49.83
2022-09-06T08:23:54.926Z,49.37
2022-09-06T08:26:24.280Z,48.70
2022-09-06T08:28:56.139Z,47.83
2022-09-06T08:31:24.340Z,47.20
2022-09-06T08:33:52.470Z,47.41
2022-09-06T08:36:20.737Z,46.43
2022-09-06T08:38:48.871Z,46.25
2022-09-06T08:41:16.564Z,45.00
2022-09-06T08:43:49.285Z,43.36
2022-09-06T08:46:18.566Z,42.84
2022-09-06T08:48:46.400Z,42.25
2022-09-06T08:51:29.354Z,41.87
2022-09-06T08:54:03.831Z,41.61
2022-09-06T08:56:38.662Z,41.26
2022-09-06T08:59:07.862Z,39.44
2022-09-06T09:01:47.859Z,39.19
2022-09-06T09:04:20.453Z,38.46
2022-09-06T09:06:51.823Z,36.64
2022-09-06T09:09:19.728Z,36.26
2022-09-06T09:11:50.150Z,35.66
2022-09-06T09:14:24.002Z,36.86
2022-09-06T09:16:53.070Z,37.26
2022-09-06T09:19:21.067Z,37.90
2022-09-06T09:21:49.177Z,37.49
2022-09-06T09:24:17.305Z,37.62
2022-09-06T09:26:51.368Z,38.02
2022-09-06T09:29:25.312Z,38.19
2022-09-06T09:31:55.699Z,37.53
2022-09-06T09:34:33.495Z,37.21
2022-09-06T09:40:13.774Z,36.95
2022-09-06T09:42:42.460Z,36.46
2022-09-06T09:45:20.903Z,36.78
2022-09-06T09:47:48.931Z,36.25
2022-09-06T09:50:28.612Z,35.95
2022-09-06T09:52:56.745Z,36.24
2022-09-06T09:55:26.108Z,35.82
2022-09-06T09:57:54.765Z,35.53
2022-09-06T10:00:34.749Z,35.68
2022-09-06T10:03:12.380Z,34.71
2022-09-06T10:05:41.446Z,34.49
2022-09-06T10:08:11.329Z,35.13
2022-09-06T10:10:42.533Z,35.20
2022-09-06T10:13:10.271Z,35.43
2022-09-06T10:15:39.475Z,34.73
2022-09-06T10:18:13.698Z,34.15
2022-09-06T10:20:46.203Z,34.06
2022-09-06T10:26:36.033Z,34.45
2022-09-06T10:29:09.783Z,34.00
2022-09-06T10:31:38.234Z,33.53
2022-09-06T10:34:18.742Z,33.28
2022-09-06T10:36:59.537Z,33.20
2022-09-06T10:39:40.674Z,33.33
2022-09-06T10:42:14.808Z,32.18
2022-09-06T10:44:50.024Z,32.06
2022-09-06T10:47:18.258Z,32.60
2022-09-06T10:49:49.852Z,32.55
2022-09-06T10:52:22.016Z,32.56
2022-09-06T10:54:50.238Z,32.46
2022-09-06T11:00:14.961Z,33.45
2022-09-06T11:02:47.487Z,33.33
2022-09-06T11:10:56.130Z,32.99
2022-09-06T11:13:28.497Z,32.70
2022-09-06T11:16:04.146Z,32.20
2022-09-06T11:18:32.936Z,31.99
2022-09-06T11:21:19.655Z,31.67
2022-09-06T11:24:06.248Z,31.17
2022-09-06T11:26:36.750Z,30.76
2022-09-06T11:29:08.076Z,31.08
2022-09-06T11:34:38.629Z,32.40
2022-09-06T11:37:08.146Z,31.69
2022-09-06T11:42:45.214Z,30.75
2022-09-06T11:45:39.649Z,31.25
2022-09-06T11:48:34.583Z,31.46
2022-09-06T11:51:06.359Z,30.73
2022-09-06T11:53:36.648Z,30.24
2022-09-06T11:56:04.468Z,30.37
2022-09-06T11:58:41.606Z,30.25
2022-09-06T12:01:29.832Z,30.20
2022-09-06T12:04:06.517Z,30.15
2022-09-06T12:06:39.290Z,30.20
2022-09-06T12:09:26.098Z,29.89
2022-09-06T12:11:55.514Z,28.49
2022-09-06T12:14:43.048Z,28.48
2022-09-06T12:17:11.521Z,28.64
2022-09-06T12:19:44.274Z,28.61
2022-09-06T12:22:35.962Z,28.80
2022-09-06T12:25:04.011Z,28.57
2022-09-06T12:27:33.265Z,28.73
2022-09-06T12:30:04.672Z,28.94
2022-09-06T12:32:38.003Z,29.31
2022-09-06T12:38:02.769Z,29.35
2022-09-06T12:40:33.429Z,29.45
2022-09-06T12:43:03.360Z,29.70
2022-09-06T12:45:31.365Z,30.24
2022-09-06T12:48:09.995Z,30.40
2022-09-06T12:50:37.923Z,30.39
2022-09-06T12:53:21.560Z,30.07
2022-09-06T12:56:02.397Z,30.26
2022-09-06T12:58:30.245Z,31.02
2022-09-06T13:01:03.924Z,31.01
2022-09-06T13:03:35.644Z,30.76
2022-09-06T13:06:05.463Z,30.54
2022-09-06T13:08:33.350Z,30.50
2022-09-06T13:11:01.942Z,30.67
2022-09-06T13:13:30.098Z,30.66
2022-09-06T13:15:58.010Z,30.81
2022-09-06T13:18:33.292Z,30.81
2022-09-06T13:21:19.451Z,30.80
2022-09-06T13:23:50.929Z,30.83
2022-09-06T13:26:35.633Z,30.47
2022-09-06T13:29:10.806Z,30.37
2022-09-06T13:31:38.804Z,30.64
2022-09-06T13:34:07.470Z,30.81
2022-09-06T13:36:35.754Z,31.01
2022-09-06T13:39:04.489Z,30.99
2022-09-06T13:41:36.458Z,30.72
2022-09-06T13:44:08.179Z,30.43
2022-09-06T13:46:36.488Z,29.75
2022-09-06T13:49:06.028Z,29.71
2022-09-06T13:51:34.591Z,30.05
2022-09-06T13:54:06.157Z,30.31
2022-09-06T13:56:33.903Z,30.20
2022-09-06T13:59:02.276Z,30.25
2022-09-06T14:01:30.367Z,30.56
2022-09-06T14:03:58.361Z,30.83
2022-09-06T14:06:26.884Z,31.17
2022-09-06T14:09:06.939Z,31.35
2022-09-06T14:11:35.135Z,30.99
2022-09-06T14:14:03.010Z,30.94
2022-09-06T14:16:31.668Z,30.93
2022-09-06T14:18:59.982Z,30.61
2022-09-06T14:21:28.126Z,30.63
2022-09-06T14:23:58.835Z,30.39
2022-09-06T14:26:29.452Z,30.20
2022-09-06T14:28:57.534Z,30.34
2022-09-06T14:31:26.721Z,30.27
2022-09-06T14:33:55.193Z,30.55
2022-09-06T14:36:24.692Z,30.45
2022-09-06T14:38:53.386Z,30.74
2022-09-06T14:41:21.693Z,30.66
2022-09-06T14:43:51.286Z,30.68
2022-09-06T14:46:20.306Z,30.58
2022-09-06T14:48:48.765Z,30.44
2022-09-06T14:51:24.011Z,30.59
2022-09-06T14:53:53.642Z,30.89
2022-09-06T14:56:21.755Z,30.88
2022-09-06T14:58:49.771Z,31.21
2022-09-06T15:01:18.163Z,31.52
2022-09-06T15:03:50.202Z,31.84
2022-09-06T15:06:20.286Z,32.02
2022-09-06T15:08:48.839Z,31.79
2022-09-06T15:11:36.749Z,31.49
2022-09-06T15:14:06.732Z,31.66
2022-09-06T15:16:35.967Z,31.63
2022-09-06T15:19:04.308Z,31.70
2022-09-06T15:21:32.276Z,31.84
2022-09-06T15:24:02.164Z,31.84
2022-09-06T15:26:30.418Z,32.22
2022-09-06T15:28:58.949Z,32.44
2022-09-06T15:31:27.643Z,32.45
2022-09-06T15:33:56.175Z,32.59
2022-09-06T15:36:24.376Z,32.80
2022-09-06T15:38:53.987Z,32.68
2022-09-06T15:41:24.648Z,32.67
2022-09-06T15:43:59.863Z,32.83
2022-09-06T15:46:37.367Z,32.81
2022-09-06T15:49:09.370Z,32.76
2022-09-06T15:51:38.436Z,32.93
2022-09-06T15:54:07.002Z,32.77
2022-09-06T15:56:35.767Z,32.70
2022-09-06T15:59:03.870Z,32.68
2022-09-06T16:01:34.010Z,32.76
2022-09-06T16:04:08.736Z,32.82
2022-09-06T16:06:38.220Z,33.09
2022-09-06T16:09:08.508Z,33.27
2022-09-06T16:11:37.079Z,33.46
2022-09-06T16:14:06.127Z,33.67
2022-09-06T16:16:35.634Z,33.99
2022-09-06T16:19:04.233Z,34.09
2022-09-06T16:21:33.701Z,34.60
2022-09-06T16:24:02.541Z,34.57
2022-09-06T16:26:32.464Z,34.73
2022-09-06T16:29:01.672Z,34.82
2022-09-06T16:31:29.811Z,35.16
2022-09-06T16:33:57.959Z,35.33
2022-09-06T16:36:26.987Z,35.56
2022-09-06T16:38:55.996Z,36.11
2022-09-06T16:41:42.838Z,37.61
2022-09-06T16:44:17.037Z,38.37
2022-09-06T16:46:48.969Z,37.82
2022-09-06T16:49:17.712Z,37.56
2022-09-06T16:51:46.312Z,37.52
2022-09-06T16:54:15.700Z,37.37
2022-09-06T16:56:44.065Z,37.52
2022-09-06T16:59:12.502Z,38.59
2022-09-06T17:01:44.444Z,39.63
2022-09-06T17:04:15.722Z,40.56
2022-09-06T17:06:46.883Z,40.78
2022-09-06T17:09:16.173Z,40.83
2022-09-06T17:11:45.020Z,40.84
2022-09-06T17:14:12.868Z,40.59
2022-09-06T17:16:59.345Z,41.39
2022-09-06T17:19:27.764Z,41.88
2022-09-06T17:21:55.794Z,41.79
2022-09-06T17:24:23.937Z,41.80
2022-09-06T17:26:52.254Z,42.26
2022-09-06T17:29:20.132Z,43.00
2022-09-06T17:31:49.705Z,43.47
2022-09-06T17:34:17.628Z,43.53
2022-09-06T17:36:46.030Z,43.04
2022-09-06T17:39:17.673Z,43.24
2022-09-06T17:41:46.994Z,43.26
2022-09-06T17:44:16.925Z,43.03
2022-09-06T17:47:02.598Z,42.90
2022-09-06T17:49:33.882Z,43.95
2022-09-06T17:52:02.459Z,43.96
2022-09-06T17:54:31.975Z,44.57
2022-09-06T17:56:59.995Z,44.36
2022-09-06T17:59:31.550Z,44.54
2022-09-06T18:02:02.571Z,45.48
2022-09-06T18:04:30.533Z,45.22
2022-09-06T18:06:59.065Z,45.83
2022-09-06T18:09:26.822Z,46.35
2022-09-06T18:11:54.736Z,46.83
2022-09-06T18:14:23.057Z,46.47
2022-09-06T18:16:51.958Z,46.31
2022-09-06T18:19:20.446Z,46.30
2022-09-06T18:21:49.230Z,45.90
2022-09-06T18:24:17.213Z,46.04
2022-09-06T18:26:45.128Z,46.19
2022-09-06T18:29:15.042Z,46.78
2022-09-06T18:31:43.598Z,46.89
2022-09-06T18:34:12.822Z,47.28
2022-09-06T18:36:40.681Z,47.48
2022-09-06T18:39:08.949Z,47.08
2022-09-06T18:41:55.869Z,47.08
2022-09-06T18:44:23.890Z,47.74
2022-09-06T18:46:55.772Z,47.72
2022-09-06T18:49:24.607Z,47.93
2022-09-06T18:51:53.046Z,48.14
2022-09-06T18:54:21.164Z,48.43
2022-09-06T18:56:50.182Z,48.63
2022-09-06T18:59:18.462Z,48.71
2022-09-06T19:01:46.630Z,48.81
2022-09-06T19:04:14.881Z,48.96
2022-09-06T19:06:43.693Z,48.88
2022-09-06T19:09:13.648Z,48.89
2022-09-06T19:11:43.570Z,49.03
2022-09-06T19:14:11.749Z,49.24
2022-09-06T19:16:39.638Z,49.37
2022-09-06T19:19:08.552Z,49.31
2022-09-06T19:21:41.715Z,49.27
2022-09-06T19:24:11.623Z,49.53
2022-09-06T19:26:41.833Z,49.40
2022-09-06T19:29:14.574Z,49.64
2022-09-06T19:31:42.586Z,49.61
2022-09-06T19:34:12.191Z,49.74
2022-09-06T19:36:40.137Z,49.94
2022-09-06T19:39:09.942Z,49.86
2022-09-06T19:41:39.649Z,49.79
2022-09-06T19:44:09.054Z,50.10
2022-09-06T19:46:37.522Z,50.10
2022-09-06T19:49:08.429Z,50.20
2022-09-06T19:51:36.911Z,50.14
2022-09-06T19:54:05.528Z,50.05
2022-09-06T19:56:34.600Z,50.15
2022-09-06T19:59:04.256Z,50.13
2022-09-06T20:01:32.889Z,50.27
2022-09-06T20:04:02.841Z,50.45
2022-09-06T20:06:30.827Z,50.47
2022-09-06T20:08:59.461Z,50.65
2022-09-06T20:11:31.687Z,50.74
2022-09-06T20:14:00.455Z,50.88
2022-09-06T20:16:28.755Z,51.12
2022-09-06T20:18:59.212Z,51.05
2022-09-06T20:21:31.138Z,51.12
2022-09-06T20:23:59.699Z,51.19
2022-09-06T20:26:29.057Z,51.28
2022-09-06T20:28:58.145Z,51.39
2022-09-06T20:31:27.991Z,51.62
2022-09-06T20:33:56.704Z,51.72
2022-09-06T20:36:25.336Z,51.66
2022-09-06T20:38:53.484Z,51.83
2022-09-06T20:41:23.549Z,51.95
2022-09-06T20:43:55.797Z,51.91
2022-09-06T20:46:25.394Z,52.24
2022-09-06T20:48:53.593Z,52.38
2022-09-06T20:51:22.976Z,52.94
2022-09-06T20:53:55.209Z,53.19
2022-09-06T20:56:24.619Z,53.52
2022-09-06T20:58:53.974Z,53.64
2022-09-06T21:01:23.496Z,53.64
2022-09-06T21:03:55.809Z,53.50
2022-09-06T21:06:24.457Z,53.49
2022-09-06T21:08:52.537Z,53.47
2022-09-06T21:11:20.404Z,53.56
2022-09-06T21:13:51.933Z,53.41
2022-09-06T21:16:24.212Z,53.31
2022-09-06T21:18:53.448Z,53.23
2022-09-06T21:21:22.612Z,53.22
2022-09-06T21:23:51.439Z,53.13
2022-09-06T21:26:19.340Z,53.07
2022-09-06T21:28:48.403Z,53.12
2022-09-06T21:31:16.843Z,53.04
2022-09-06T21:33:49.026Z,53.14
2022-09-06T21:36:18.309Z,53.09
2022-09-06T21:38:47.557Z,53.18
2022-09-06T21:41:16.892Z,53.13
2022-09-06T21:43:45.430Z,53.21
2022-09-06T21:46:15.977Z,53.15
2022-09-06T21:48:45.789Z,53.30
2022-09-06T21:51:14.611Z,53.40
2022-09-06T21:53:43.660Z,53.29
2022-09-06T21:56:12.345Z,53.40
2022-09-06T21:58:41.321Z,53.49
2022-09-06T22:01:09.248Z,53.46
2022-09-06T22:03:39.876Z,53.55
2022-09-06T22:06:13.657Z,53.43
2022-09-06T22:08:43.334Z,53.66
2022-09-06T22:11:12.994Z,53.90
2022-09-06T22:13:42.275Z,53.95
2022-09-06T22:16:10.352Z,53.99
2022-09-06T22:18:38.223Z,54.04
2022-09-06T22:21:07.234Z,54.32
2022-09-06T22:23:35.393Z,54.26
2022-09-06T22:26:04.701Z,54.26
2022-09-06T22:28:33.393Z,54.27
2022-09-06T22:31:01.562Z,54.25
2022-09-06T22:33:29.396Z,54.14
2022-09-06T22:36:00.142Z,54.06
2022-09-06T22:38:29.375Z,54.16
2022-09-06T22:40:58.392Z,54.05
2022-09-06T22:43:26.438Z,54.08
2022-09-06T22:45:54.496Z,54.07
2022-09-06T22:48:22.652Z,54.11
2022-09-06T22:50:50.504Z,54.12
2022-09-06T22:53:19.270Z,54.11
2022-09-06T22:55:48.092Z,54.18
2022-09-06T22:58:15.918Z,54.01
2022-09-06T23:00:43.766Z,53.93
2022-09-06T23:03:11.881Z,54.03
2022-09-06T23:05:39.700Z,54.13
2022-09-06T23:08:07.860Z,53.96
2022-09-06T23:10:39.795Z,53.90
2022-09-06T23:13:07.929Z,53.86
2022-09-06T23:15:36.336Z,53.67
2022-09-06T23:18:04.837Z,53.62
2022-09-06T23:20:32.759Z,53.64
2022-09-06T23:23:00.548Z,54.01
2022-09-06T23:25:28.387Z,54.83
2022-09-06T23:27:58.243Z,55.89
2022-09-06T23:30:26.436Z,57.50
2022-09-06T23:32:56.608Z,57.69
2022-09-06T23:35:24.546Z,57.92
2022-09-06T23:37:53.226Z,58.30
2022-09-06T23:40:21.412Z,59.38
2022-09-06T23:42:49.256Z,59.69
2022-09-06T23:45:17.284Z,60.06
2022-09-06T23:47:44.992Z,60.60
2022-09-06T23:50:13.166Z,61.13
2022-09-06T23:52:41.255Z,61.85
2022-09-06T23:55:10.735Z,61.84
2022-09-06T23:57:38.684Z,61.42
